createdAt,value
2022-09-24T00:00:27.253Z,10.56
2022-09-24T00:01:27.366Z,10.59
2022-09-24T00:02:27.271Z,10.59
2022-09-24T00:03:27.563Z,10.59
2022-09-24T00:04:27.228Z,10.60
2022-09-24T00:05:27.203Z,10.63
2022-09-24T00:06:27.201Z,10.64
2022-09-24T00:07:27.161Z,10.64
2022-09-24T00:08:27.586Z,10.64
2022-09-24T00:09:27.130Z,10.66
2022-09-24T00:10:27.131Z,10.64
2022-09-24T00:11:27.112Z,10.66
2022-09-24T00:12:27.108Z,10.67
2022-09-24T00:13:27.510Z,10.68
2022-09-24T00:14:27.079Z,10.70
2022-09-24T00:15:27.061Z,10.73
2022-09-24T00:16:27.120Z,10.71
2022-09-24T00:17:27.029Z,10.73
2022-09-24T00:18:27.402Z,10.73
2022-09-24T00:19:27.009Z,10.73
2022-09-24T00:20:26.998Z,10.76
2022-09-24T00:21:26.979Z,10.78
2022-09-24T00:22:26.976Z,10.81
2022-09-24T00:23:27.377Z,10.82
2022-09-24T00:24:26.938Z,10.81
2022-09-24T00:25:26.944Z,10.81
2022-09-24T00:26:26.925Z,10.79
2022-09-24T00:27:26.906Z,10.78
2022-09-24T00:28:27.206Z,10.74
2022-09-24T00:29:26.876Z,10.76
2022-09-24T00:30:26.869Z,10.74
2022-09-24T00:31:26.923Z,10.74
2022-09-24T00:32:26.837Z,10.71
2022-09-24T00:33:27.192Z,10.73
2022-09-24T00:34:26.823Z,10.70
2022-09-24T00:35:26.812Z,10.68
2022-09-24T00:36:26.784Z,10.64
2022-09-24T00:37:26.775Z,10.61
2022-09-24T00:38:27.196Z,10.63
2022-09-24T00:39:26.753Z,10.60
2022-09-24T00:40:26.764Z,10.59
2022-09-24T00:41:26.736Z,10.55
2022-09-24T00:42:26.713Z,10.51
2022-09-24T00:43:26.712Z,10.44
2022-09-24T00:44:27.116Z,10.40
2022-09-24T00:45:26.673Z,10.38
2022-09-24T00:46:26.736Z,10.34
2022-09-24T00:47:26.652Z,10.34
2022-09-24T00:48:26.641Z,10.32
2022-09-24T00:49:27.004Z,10.32
2022-09-24T00:50:26.627Z,10.29
2022-09-24T00:51:26.593Z,10.29
2022-09-24T00:52:26.591Z,10.25
2022-09-24T00:53:26.579Z,10.22
2022-09-24T00:54:26.979Z,10.20
2022-09-24T00:55:26.558Z,10.20
2022-09-24T00:56:26.541Z,10.18
2022-09-24T00:57:26.521Z,10.18
2022-09-24T00:58:33.500Z,10.17
2022-09-24T00:59:33.878Z,10.15
2022-09-24T01:00:26.562Z,10.14
2022-09-24T01:01:26.529Z,10.12
2022-09-24T01:02:26.499Z,10.09
2022-09-24T01:03:33.445Z,10.08
2022-09-24T01:04:26.775Z,10.11
2022-09-24T01:05:26.417Z,10.09
2022-09-24T01:06:26.413Z,10.08
2022-09-24T01:07:26.414Z,10.08
2022-09-24T01:08:26.383Z,10.05
2022-09-24T01:09:26.825Z,10.04
2022-09-24T01:10:26.354Z,9.94
2022-09-24T01:11:26.344Z,9.93
2022-09-24T01:12:26.330Z,9.91
2022-09-24T01:13:26.315Z,9.87
2022-09-24T01:14:26.715Z,9.86
2022-09-24T01:15:26.293Z,9.81
2022-09-24T01:16:26.336Z,9.78
2022-09-24T01:17:26.266Z,9.75
2022-09-24T01:18:26.250Z,9.71
2022-09-24T01:19:26.591Z,9.68
2022-09-24T01:20:26.221Z,9.66
2022-09-24T01:21:26.212Z,9.65
2022-09-24T01:22:26.193Z,9.61
2022-09-24T01:23:26.184Z,9.58
2022-09-24T01:24:26.610Z,9.54
2022-09-24T01:25:26.161Z,9.48
2022-09-24T01:26:26.149Z,9.42
2022-09-24T01:27:26.133Z,9.39
2022-09-24T01:28:26.120Z,9.40
2022-09-24T01:29:26.522Z,9.42
2022-09-24T01:30:26.100Z,9.43
2022-09-24T01:31:26.139Z,9.46
2022-09-24T01:32:31.597Z,9.46
2022-09-24T01:33:27.061Z,9.43
2022-09-24T01:34:26.376Z,9.42
2022-09-24T01:35:26.037Z,9.39
2022-09-24T01:36:26.016Z,9.39
2022-09-24T01:37:26.006Z,9.38
2022-09-24T01:38:25.986Z,9.33
2022-09-24T01:39:26.409Z,9.32
2022-09-24T01:40:25.994Z,9.32
2022-09-24T01:41:25.953Z,9.35
2022-09-24T01:42:25.948Z,9.36
2022-09-24T01:43:25.936Z,9.39
2022-09-24T01:44:26.267Z,9.38
2022-09-24T01:45:25.897Z,9.39
2022-09-24T01:46:25.969Z,9.36
2022-09-24T01:47:26.055Z,9.33
2022-09-24T01:48:25.856Z,9.28
2022-09-24T01:49:26.279Z,9.23
2022-09-24T01:50:25.838Z,9.17
2022-09-24T01:51:25.813Z,9.15
2022-09-24T01:52:25.802Z,9.14
2022-09-24T01:53:25.802Z,9.10
2022-09-24T01:54:26.196Z,9.02
2022-09-24T01:55:25.770Z,8.99
2022-09-24T01:56:25.762Z,9.01
2022-09-24T01:57:25.742Z,9.01
2022-09-24T01:58:25.732Z,9.02
2022-09-24T01:59:26.081Z,9.02
2022-09-24T02:00:25.703Z,9.02
2022-09-24T02:01:25.754Z,9.05
2022-09-24T02:02:25.710Z,9.11
2022-09-24T02:03:25.662Z,9.13
2022-09-24T02:04:26.081Z,9.08
2022-09-24T02:05:25.637Z,9.02
2022-09-24T02:06:25.628Z,8.94
2022-09-24T02:07:25.631Z,8.92
2022-09-24T02:08:25.597Z,8.89
2022-09-24T02:09:25.967Z,8.86
2022-09-24T02:10:25.569Z,8.83
2022-09-24T02:11:25.569Z,8.80
2022-09-24T02:12:25.539Z,8.83
2022-09-24T02:13:25.543Z,8.83
2022-09-24T02:14:25.849Z,8.80
2022-09-24T02:15:28.941Z,8.77
2022-09-24T02:16:26.541Z,8.76
2022-09-24T02:17:25.488Z,8.74
2022-09-24T02:18:25.480Z,8.76
2022-09-24T02:19:25.887Z,8.79
2022-09-24T02:20:25.443Z,8.77
2022-09-24T02:21:25.430Z,8.73
2022-09-24T02:22:25.431Z,8.65
2022-09-24T02:23:25.407Z,8.58
2022-09-24T02:24:25.386Z,8.61
2022-09-24T02:25:25.802Z,8.65
2022-09-24T02:26:25.365Z,8.74
2022-09-24T02:27:25.358Z,8.76
2022-09-24T02:28:25.345Z,8.76
2022-09-24T02:29:25.665Z,8.74
2022-09-24T02:30:25.337Z,8.71
2022-09-24T02:31:25.362Z,8.70
2022-09-24T02:32:25.294Z,8.66
2022-09-24T02:33:25.280Z,8.68
2022-09-24T02:34:25.277Z,8.71
2022-09-24T02:35:25.671Z,8.73
2022-09-24T02:36:25.251Z,8.74
2022-09-24T02:37:25.229Z,8.77
2022-09-24T02:38:25.222Z,8.81
2022-09-24T02:39:25.552Z,8.84
2022-09-24T02:40:25.230Z,8.83
2022-09-24T02:41:25.175Z,8.89
2022-09-24T02:42:25.157Z,8.95
2022-09-24T02:43:25.148Z,9.02
2022-09-24T02:44:25.137Z,9.11
2022-09-24T02:45:25.540Z,9.11
2022-09-24T02:46:25.162Z,9.13
2022-09-24T02:47:25.080Z,9.17
2022-09-24T02:48:25.072Z,9.23
2022-09-24T02:49:25.466Z,9.29
2022-09-24T02:50:25.051Z,9.32
2022-09-24T02:51:25.029Z,9.32
2022-09-24T02:52:25.020Z,9.33
2022-09-24T02:53:25.010Z,9.29
2022-09-24T02:54:24.998Z,9.28
2022-09-24T02:55:25.348Z,9.24
2022-09-24T02:56:24.969Z,9.23
2022-09-24T02:57:24.958Z,9.23
2022-09-24T02:58:24.941Z,9.24
2022-09-24T02:59:25.364Z,9.28
2022-09-24T03:00:24.918Z,9.31
2022-09-24T03:01:24.972Z,9.33
2022-09-24T03:02:24.984Z,9.35
2022-09-24T03:03:24.885Z,9.36
2022-09-24T03:04:25.283Z,9.35
2022-09-24T03:05:24.853Z,9.35
2022-09-24T03:06:24.849Z,9.38
2022-09-24T03:07:24.835Z,9.39
2022-09-24T03:08:24.811Z,9.46
2022-09-24T03:09:25.188Z,9.50
2022-09-24T03:10:24.793Z,9.51
2022-09-24T03:11:24.774Z,9.56
2022-09-24T03:12:24.775Z,9.57
2022-09-24T03:13:24.749Z,9.60
2022-09-24T03:14:25.164Z,9.64
2022-09-24T03:15:24.723Z,9.66
2022-09-24T03:16:24.808Z,9.66
2022-09-24T03:17:24.703Z,9.66
2022-09-24T03:18:24.690Z,9.68
2022-09-24T03:19:25.114Z,9.71
2022-09-24T03:20:24.653Z,9.69
2022-09-24T03:21:24.669Z,9.71
2022-09-24T03:22:24.644Z,9.69
2022-09-24T03:23:24.618Z,9.68
2022-09-24T03:24:24.993Z,9.68
2022-09-24T03:25:24.590Z,9.68
2022-09-24T03:26:24.575Z,9.69
2022-09-24T03:27:24.578Z,9.68
2022-09-24T03:28:24.547Z,9.68
2022-09-24T03:29:24.970Z,9.68
2022-09-24T03:30:24.520Z,9.68
2022-09-24T03:31:24.599Z,9.66
2022-09-24T03:32:24.500Z,9.66
2022-09-24T03:33:24.907Z,9.66
2022-09-24T03:34:31.475Z,9.65
2022-09-24T03:35:31.462Z,9.64
2022-09-24T03:36:31.438Z,9.65
2022-09-24T03:37:24.430Z,9.66
2022-09-24T03:38:24.408Z,9.66
2022-09-24T03:39:24.787Z,9.69
2022-09-24T03:40:24.429Z,9.72
2022-09-24T03:41:24.379Z,9.74
2022-09-24T03:42:24.367Z,9.75
2022-09-24T03:43:24.368Z,9.75
2022-09-24T03:44:24.768Z,9.78
2022-09-24T03:45:24.338Z,9.79
2022-09-24T03:46:24.376Z,9.84
2022-09-24T03:47:24.303Z,9.89
2022-09-24T03:48:24.299Z,9.90
2022-09-24T03:49:24.716Z,9.94
2022-09-24T03:50:24.256Z,9.96
2022-09-24T03:51:24.255Z,9.99
2022-09-24T03:52:24.235Z,10.01
2022-09-24T03:53:24.235Z,10.04
2022-09-24T03:54:24.642Z,10.04
2022-09-24T03:55:24.207Z,10.02
2022-09-24T03:56:24.183Z,9.96
2022-09-24T03:57:24.183Z,9.97
2022-09-24T03:58:24.162Z,9.97
2022-09-24T03:59:24.505Z,10.01
2022-09-24T04:00:24.160Z,10.01
2022-09-24T04:01:24.183Z,10.02
2022-09-24T04:02:24.147Z,10.04
2022-09-24T04:03:24.222Z,10.04
2022-09-24T04:04:24.514Z,10.02
2022-09-24T04:05:24.071Z,10.04
2022-09-24T04:06:26.045Z,10.04
2022-09-24T04:07:24.052Z,10.04
2022-09-24T04:08:24.031Z,10.05
2022-09-24T04:09:24.471Z,10.05
2022-09-24T04:10:24.019Z,10.05
2022-09-24T04:11:24.003Z,10.07
2022-09-24T04:12:23.984Z,10.08
2022-09-24T04:13:23.978Z,10.07
2022-09-24T04:14:24.389Z,10.07
2022-09-24T04:15:23.949Z,10.07
2022-09-24T04:16:24.044Z,10.08
2022-09-24T04:17:23.918Z,10.08
2022-09-24T04:18:23.900Z,10.09
2022-09-24T04:19:24.223Z,10.08
2022-09-24T04:20:23.879Z,10.09
2022-09-24T04:21:23.869Z,10.08
2022-09-24T04:22:23.851Z,10.09
2022-09-24T04:23:23.837Z,10.08
2022-09-24T04:24:23.831Z,10.08
2022-09-24T04:25:24.127Z,10.08
2022-09-24T04:26:23.798Z,10.09
2022-09-24T04:27:23.789Z,10.11
2022-09-24T04:28:23.779Z,10.12
2022-09-24T04:29:24.196Z,10.12
2022-09-24T04:30:23.754Z,10.14
2022-09-24T04:31:23.861Z,10.15
2022-09-24T04:32:23.732Z,10.18
2022-09-24T04:33:23.705Z,10.17
2022-09-24T04:34:23.697Z,10.18
2022-09-24T04:35:24.113Z,10.23
2022-09-24T04:36:23.675Z,10.26
2022-09-24T04:37:23.657Z,10.29
2022-09-24T04:38:23.646Z,10.32
2022-09-24T04:39:24.077Z,10.32
2022-09-24T04:40:23.676Z,10.32
2022-09-24T04:41:23.606Z,10.32
2022-09-24T04:42:23.593Z,10.34
2022-09-24T04:43:23.575Z,10.34
2022-09-24T04:44:23.599Z,10.34
2022-09-24T04:45:23.873Z,10.36
2022-09-24T04:46:23.615Z,10.36
2022-09-24T04:47:23.532Z,10.36
2022-09-24T04:48:23.513Z,10.36
2022-09-24T04:49:23.829Z,10.33
2022-09-24T04:50:23.487Z,10.33
2022-09-24T04:51:23.472Z,10.30
2022-09-24T04:52:23.461Z,10.30
2022-09-24T04:53:23.441Z,10.30
2022-09-24T04:54:23.442Z,10.32
2022-09-24T04:55:23.860Z,10.32
2022-09-24T04:56:23.413Z,10.34
2022-09-24T04:57:23.398Z,10.34
2022-09-24T04:58:23.392Z,10.36
2022-09-24T04:59:23.818Z,10.36
2022-09-24T05:00:23.359Z,10.36
2022-09-24T05:01:23.385Z,10.38
2022-09-24T05:02:23.436Z,10.38
2022-09-24T05:03:23.327Z,10.40
2022-09-24T05:04:23.310Z,10.38
2022-09-24T05:05:23.692Z,10.40
2022-09-24T05:06:23.279Z,10.36
2022-09-24T05:07:23.286Z,10.36
2022-09-24T05:08:23.260Z,10.36
2022-09-24T05:09:23.699Z,10.34
2022-09-24T05:10:23.228Z,10.33
2022-09-24T05:11:23.215Z,10.32
2022-09-24T05:12:23.215Z,10.32
2022-09-24T05:13:23.187Z,10.30
2022-09-24T05:14:23.176Z,10.30
2022-09-24T05:15:23.538Z,10.29
2022-09-24T05:16:23.412Z,10.29
2022-09-24T05:17:23.134Z,10.29
2022-09-24T05:18:23.126Z,10.29
2022-09-24T05:19:23.428Z,10.26
2022-09-24T05:20:23.103Z,10.26
2022-09-24T05:21:23.082Z,10.27
2022-09-24T05:22:23.077Z,10.29
2022-09-24T05:23:23.054Z,10.30
2022-09-24T05:24:23.054Z,10.30
2022-09-24T05:25:23.425Z,10.32
2022-09-24T05:26:23.033Z,10.33
2022-09-24T05:27:23.006Z,10.34
2022-09-24T05:28:22.999Z,10.34
2022-09-24T05:29:23.412Z,10.38
2022-09-24T05:30:22.972Z,10.41
2022-09-24T05:31:22.997Z,10.40
2022-09-24T05:32:22.951Z,10.41
2022-09-24T05:33:22.931Z,10.42
2022-09-24T05:34:22.932Z,10.44
2022-09-24T05:35:23.404Z,10.45
2022-09-24T05:36:22.901Z,10.47
2022-09-24T05:37:22.887Z,10.48
2022-09-24T05:38:22.869Z,10.47
2022-09-24T05:39:23.199Z,10.48
2022-09-24T05:40:22.903Z,10.48
2022-09-24T05:41:22.831Z,10.48
2022-09-24T05:42:22.822Z,10.51
2022-09-24T05:43:22.810Z,10.52
2022-09-24T05:44:23.179Z,10.52
2022-09-24T05:45:22.781Z,10.52
2022-09-24T05:46:22.827Z,10.53
2022-09-24T05:47:22.751Z,10.53
2022-09-24T05:48:22.849Z,10.55
2022-09-24T05:49:23.158Z,10.53
2022-09-24T05:50:22.723Z,10.55
2022-09-24T05:51:22.707Z,10.59
2022-09-24T05:52:22.724Z,10.59
2022-09-24T05:53:22.676Z,10.60
2022-09-24T05:54:22.987Z,10.63
2022-09-24T05:55:22.667Z,10.63
2022-09-24T05:56:22.647Z,10.66
2022-09-24T05:57:22.640Z,10.67
2022-09-24T05:58:22.629Z,10.70
2022-09-24T05:59:22.975Z,10.73
2022-09-24T06:00:22.586Z,10.76
2022-09-24T06:01:22.845Z,10.79
2022-09-24T06:02:22.659Z,10.84
2022-09-24T06:03:22.626Z,10.85
2022-09-24T06:04:22.976Z,10.89
2022-09-24T06:05:22.596Z,10.92
2022-09-24T06:06:22.522Z,10.96
2022-09-24T06:07:22.503Z,10.99
2022-09-24T06:08:22.487Z,11.03
2022-09-24T06:09:22.845Z,11.03
2022-09-24T06:10:22.571Z,11.03
2022-09-24T06:11:22.467Z,11.06
2022-09-24T06:12:22.443Z,11.09
2022-09-24T06:13:22.428Z,11.10
2022-09-24T06:14:22.849Z,11.14
2022-09-24T06:15:22.391Z,11.15
2022-09-24T06:16:22.480Z,11.17
2022-09-24T06:17:22.372Z,11.21
2022-09-24T06:18:22.375Z,11.22
2022-09-24T06:19:22.738Z,11.27
2022-09-24T06:20:22.355Z,11.29
2022-09-24T06:21:22.321Z,11.33
2022-09-24T06:22:26.285Z,11.36
2022-09-24T06:23:23.304Z,11.39
2022-09-24T06:24:22.281Z,11.43
2022-09-24T06:25:22.474Z,11.47
2022-09-24T06:26:22.261Z,11.51
2022-09-24T06:27:22.249Z,11.52
2022-09-24T06:28:22.230Z,11.54
2022-09-24T06:29:22.573Z,11.57
2022-09-24T06:30:22.211Z,11.60
2022-09-24T06:31:22.244Z,11.62
2022-09-24T06:32:22.178Z,11.64
2022-09-24T06:33:22.170Z,11.70
2022-09-24T06:34:22.157Z,11.75
2022-09-24T06:35:22.177Z,11.79
2022-09-24T06:36:22.127Z,11.83
2022-09-24T06:37:22.119Z,11.91
2022-09-24T06:38:22.098Z,11.95
2022-09-24T06:39:22.517Z,12.02
2022-09-24T06:40:22.164Z,12.13
2022-09-24T06:41:22.056Z,12.19
2022-09-24T06:42:22.044Z,12.27
2022-09-24T06:43:22.042Z,12.31
2022-09-24T06:44:22.038Z,12.35
2022-09-24T06:45:22.358Z,12.39
2022-09-24T06:46:22.045Z,12.39
2022-09-24T06:47:21.987Z,12.42
2022-09-24T06:48:21.975Z,12.41
2022-09-24T06:49:22.313Z,12.45
2022-09-24T06:50:21.946Z,12.46
2022-09-24T06:51:21.933Z,12.47
2022-09-24T06:52:21.915Z,12.49
2022-09-24T06:53:21.908Z,12.50
2022-09-24T06:54:21.895Z,12.54
2022-09-24T06:55:22.315Z,12.54
2022-09-24T06:56:21.877Z,12.52
2022-09-24T06:57:26.586Z,12.52
2022-09-24T06:58:22.853Z,12.49
2022-09-24T06:59:22.153Z,12.52
2022-09-24T07:00:21.810Z,12.53
2022-09-24T07:01:21.864Z,12.56
2022-09-24T07:02:21.941Z,12.56
2022-09-24T07:03:21.778Z,12.57
2022-09-24T07:04:21.763Z,12.59
2022-09-24T07:05:22.072Z,12.57
2022-09-24T07:06:21.743Z,12.60
2022-09-24T07:07:21.725Z,12.64
2022-09-24T07:08:21.722Z,12.64
2022-09-24T07:09:22.104Z,12.68
2022-09-24T07:10:21.692Z,12.67
2022-09-24T07:11:21.673Z,12.68
2022-09-24T07:12:21.671Z,12.71
2022-09-24T07:13:21.655Z,12.74
2022-09-24T07:14:21.992Z,12.78
2022-09-24T07:15:21.637Z,12.85
2022-09-24T07:16:21.632Z,12.89
2022-09-24T07:17:21.600Z,12.92
2022-09-24T07:18:21.584Z,12.95
2022-09-24T07:19:21.609Z,13.00
2022-09-24T07:20:21.563Z,13.01
2022-09-24T07:21:21.540Z,13.03
2022-09-24T07:22:21.569Z,13.05
2022-09-24T07:23:21.512Z,13.07
2022-09-24T07:24:21.861Z,13.11
2022-09-24T07:25:21.501Z,13.15
2022-09-24T07:26:21.481Z,13.17
2022-09-24T07:27:21.487Z,13.19
2022-09-24T07:28:21.445Z,13.19
2022-09-24T07:29:21.438Z,13.20
2022-09-24T07:30:21.792Z,13.19
2022-09-24T07:31:21.452Z,13.20
2022-09-24T07:32:24.009Z,13.26
2022-09-24T07:33:21.375Z,13.25
2022-09-24T07:34:21.375Z,13.29
2022-09-24T07:35:21.377Z,13.33
2022-09-24T07:36:21.347Z,13.33
2022-09-24T07:37:21.319Z,13.38
2022-09-24T07:38:21.316Z,13.41
2022-09-24T07:39:21.297Z,13.42
2022-09-24T07:40:21.662Z,13.44
2022-09-24T07:41:21.273Z,13.48
2022-09-24T07:42:21.257Z,13.52
2022-09-24T07:43:21.246Z,13.52
2022-09-24T07:44:21.236Z,13.59
2022-09-24T07:45:21.556Z,13.63
2022-09-24T07:46:21.267Z,13.69
2022-09-24T07:47:21.205Z,13.73
2022-09-24T07:48:21.183Z,13.77
2022-09-24T07:49:21.165Z,13.82
2022-09-24T07:50:21.215Z,13.92
2022-09-24T07:51:21.133Z,14.00
2022-09-24T07:52:21.115Z,14.03
2022-09-24T07:53:21.147Z,14.10
2022-09-24T07:54:21.102Z,14.14
2022-09-24T07:55:21.073Z,14.15
2022-09-24T07:56:21.433Z,14.20
2022-09-24T07:57:21.062Z,14.21
2022-09-24T07:58:21.049Z,14.25
2022-09-24T07:59:21.035Z,14.32
2022-09-24T08:00:21.021Z,14.36
2022-09-24T08:01:21.500Z,14.39
2022-09-24T08:02:20.992Z,14.43
2022-09-24T08:03:21.018Z,14.51
2022-09-24T08:04:21.025Z,14.55
2022-09-24T08:05:20.958Z,14.61
2022-09-24T08:06:21.269Z,14.65
2022-09-24T08:07:20.924Z,14.72
2022-09-24T08:08:20.911Z,14.78
2022-09-24T08:09:20.903Z,14.83
2022-09-24T08:10:20.888Z,14.88
2022-09-24T08:11:21.313Z,14.95
2022-09-24T08:12:20.885Z,15.01
2022-09-24T08:13:24.039Z,15.10
2022-09-24T08:14:21.831Z,15.19
2022-09-24T08:15:20.821Z,15.28
2022-09-24T08:16:21.337Z,15.34
2022-09-24T08:17:20.792Z,15.35
2022-09-24T08:18:20.780Z,15.38
2022-09-24T08:19:20.770Z,15.41
2022-09-24T08:20:20.830Z,15.41
2022-09-24T08:21:21.060Z,15.32
2022-09-24T08:22:20.727Z,15.25
2022-09-24T08:23:20.723Z,15.17
2022-09-24T08:24:20.703Z,15.03
2022-09-24T08:25:20.690Z,14.94
2022-09-24T08:26:21.079Z,14.89
2022-09-24T08:27:20.665Z,14.83
2022-09-24T08:28:20.651Z,14.83
2022-09-24T08:29:20.647Z,14.86
2022-09-24T08:30:20.685Z,14.88
2022-09-24T08:31:20.664Z,14.92
2022-09-24T08:32:20.591Z,14.98
2022-09-24T08:33:20.588Z,15.03
2022-09-24T08:34:20.626Z,15.10
2022-09-24T08:35:20.560Z,15.14
2022-09-24T08:36:20.923Z,15.16
2022-09-24T08:37:20.528Z,15.17
2022-09-24T08:38:20.517Z,15.13
2022-09-24T08:39:20.517Z,15.19
2022-09-24T08:40:20.601Z,15.28
2022-09-24T08:41:20.907Z,15.39
2022-09-24T08:42:20.470Z,15.53
2022-09-24T08:43:20.459Z,15.64
2022-09-24T08:44:20.432Z,15.75
2022-09-24T08:45:20.427Z,15.86
2022-09-24T08:46:20.922Z,15.97
2022-09-24T08:47:20.406Z,16.09
2022-09-24T08:48:20.385Z,16.17
2022-09-24T08:49:20.369Z,16.15
2022-09-24T08:50:27.347Z,16.15
2022-09-24T08:51:32.765Z,16.21
2022-09-24T08:52:21.325Z,16.15
2022-09-24T08:53:20.312Z,16.12
2022-09-24T08:54:20.324Z,16.21
2022-09-24T08:55:20.296Z,16.20
2022-09-24T08:56:20.732Z,16.17
2022-09-24T08:57:20.263Z,16.17
2022-09-24T08:58:20.256Z,16.27
2022-09-24T08:59:20.252Z,16.34
2022-09-24T09:00:20.233Z,16.35
2022-09-24T09:01:20.719Z,16.45
2022-09-24T09:02:20.297Z,16.50
2022-09-24T09:03:20.196Z,16.48
2022-09-24T09:04:20.171Z,16.49
2022-09-24T09:05:20.180Z,16.60
2022-09-24T09:06:20.453Z,16.56
2022-09-24T09:07:20.140Z,16.57
2022-09-24T09:08:45.143Z,16.50
2022-09-24T09:09:21.332Z,16.53
2022-09-24T09:10:20.101Z,16.60
2022-09-24T09:11:20.594Z,16.58
2022-09-24T09:12:20.090Z,16.63
2022-09-24T09:13:20.059Z,16.76
2022-09-24T09:14:20.051Z,16.88
2022-09-24T09:15:20.022Z,16.98
2022-09-24T09:16:20.534Z,17.11
2022-09-24T09:17:20.005Z,17.15
2022-09-24T09:18:19.988Z,17.15
2022-09-24T09:19:19.992Z,17.21
2022-09-24T09:20:19.970Z,17.22
2022-09-24T09:21:20.373Z,17.30
2022-09-24T09:22:19.942Z,17.22
2022-09-24T09:23:19.934Z,17.23
2022-09-24T09:24:19.903Z,17.21
2022-09-24T09:25:19.941Z,17.14
2022-09-24T09:26:20.225Z,17.18
2022-09-24T09:27:19.870Z,17.21
2022-09-24T09:28:19.878Z,17.11
2022-09-24T09:29:19.851Z,17.08
2022-09-24T09:30:19.824Z,17.04
2022-09-24T09:31:19.934Z,17.08
2022-09-24T09:32:20.120Z,17.14
2022-09-24T09:33:19.799Z,17.23
2022-09-24T09:34:19.781Z,17.44
2022-09-24T09:35:19.779Z,17.58
2022-09-24T09:36:19.751Z,17.66
2022-09-24T09:37:25.527Z,17.68
2022-09-24T09:38:20.721Z,17.75
2022-09-24T09:39:19.720Z,17.89
2022-09-24T09:40:19.772Z,17.93
2022-09-24T09:41:19.686Z,17.90
2022-09-24T09:42:19.799Z,17.90
2022-09-24T09:43:19.653Z,17.92
2022-09-24T09:44:19.640Z,17.97
2022-09-24T09:45:23.002Z,18.12
2022-09-24T09:46:20.697Z,18.14
2022-09-24T09:47:20.059Z,18.23
2022-09-24T09:48:19.586Z,18.44
2022-09-24T09:49:19.592Z,18.50
2022-09-24T09:50:19.571Z,18.41
2022-09-24T09:51:22.407Z,18.51
2022-09-24T09:52:19.869Z,18.62
2022-09-24T09:53:19.552Z,18.76
2022-09-24T09:54:19.520Z,18.69
2022-09-24T09:55:19.500Z,18.76
2022-09-24T09:56:19.515Z,18.81
2022-09-24T09:57:19.906Z,18.99
2022-09-24T09:58:19.469Z,19.07
2022-09-24T09:59:19.460Z,19.14
2022-09-24T10:00:19.429Z,18.98
2022-09-24T10:01:19.429Z,18.94
2022-09-24T10:02:19.787Z,19.07
2022-09-24T10:03:19.451Z,19.10
2022-09-24T10:04:19.378Z,18.85
2022-09-24T10:05:22.201Z,18.85
2022-09-24T10:06:20.349Z,18.85
2022-09-24T10:07:19.759Z,18.84
2022-09-24T10:08:19.330Z,18.78
2022-09-24T10:09:19.318Z,18.72
2022-09-24T10:10:19.308Z,18.67
2022-09-24T10:11:19.289Z,18.62
2022-09-24T10:12:19.372Z,18.67
2022-09-24T10:13:19.260Z,18.63
2022-09-24T10:14:19.259Z,18.67
2022-09-24T10:15:19.240Z,18.73
2022-09-24T10:16:19.284Z,18.82
2022-09-24T10:17:19.580Z,19.00
2022-09-24T10:18:19.201Z,18.94
2022-09-24T10:19:19.196Z,18.92
2022-09-24T10:20:19.171Z,18.87
2022-09-24T10:21:19.158Z,18.69
2022-09-24T10:22:19.490Z,18.65
2022-09-24T10:23:19.153Z,18.48
2022-09-24T10:24:19.120Z,18.33
2022-09-24T10:25:19.159Z,18.25
2022-09-24T10:26:19.097Z,18.07
2022-09-24T10:27:19.388Z,18.05
2022-09-24T10:28:19.054Z,18.03
2022-09-24T10:29:19.047Z,18.14
2022-09-24T10:30:19.056Z,18.10
2022-09-24T10:31:19.097Z,18.14
2022-09-24T10:32:19.057Z,18.14
2022-09-24T10:33:19.005Z,18.12
2022-09-24T10:34:18.981Z,18.15
2022-09-24T10:35:19.000Z,18.10
2022-09-24T10:36:18.957Z,17.99
2022-09-24T10:37:19.003Z,18.07
2022-09-24T10:38:18.966Z,17.99
2022-09-24T10:39:18.925Z,18.00
2022-09-24T10:40:27.005Z,18.02
2022-09-24T10:41:25.914Z,18.02
2022-09-24T10:42:25.919Z,17.93
2022-09-24T10:43:18.868Z,17.84
2022-09-24T10:44:18.846Z,17.90
2022-09-24T10:45:18.848Z,17.93
2022-09-24T10:46:18.848Z,17.90
2022-09-24T10:47:18.847Z,17.86
2022-09-24T10:48:18.809Z,17.99
2022-09-24T10:49:18.923Z,18.07
2022-09-24T10:50:18.788Z,18.15
2022-09-24T10:51:18.769Z,18.25
2022-09-24T10:52:19.058Z,18.17
2022-09-24T10:53:18.729Z,18.25
2022-09-24T10:54:18.721Z,18.32
2022-09-24T10:55:18.706Z,18.39
2022-09-24T10:56:18.686Z,18.42
2022-09-24T10:57:19.069Z,18.36
2022-09-24T10:58:18.667Z,18.29
2022-09-24T10:59:18.667Z,18.29
2022-09-24T11:00:18.646Z,18.20
2022-09-24T11:01:18.706Z,18.08
2022-09-24T11:02:18.757Z,18.05
2022-09-24T11:03:18.724Z,18.21
2022-09-24T11:04:18.607Z,18.23
2022-09-24T11:05:18.581Z,18.17
2022-09-24T11:06:18.578Z,18.32
2022-09-24T11:07:18.984Z,18.54
2022-09-24T11:08:18.546Z,18.66
2022-09-24T11:09:18.547Z,18.63
2022-09-24T11:10:18.516Z,18.63
2022-09-24T11:11:18.507Z,18.67
2022-09-24T11:12:18.506Z,18.81
2022-09-24T11:13:18.919Z,18.82
2022-09-24T11:14:18.476Z,18.94
2022-09-24T11:15:18.446Z,19.10
2022-09-24T11:16:18.474Z,19.21
2022-09-24T11:17:18.426Z,19.32
2022-09-24T11:18:18.443Z,19.56
2022-09-24T11:19:18.407Z,19.61
2022-09-24T11:20:18.376Z,19.63
2022-09-24T11:21:18.365Z,19.71
2022-09-24T11:22:18.367Z,19.69
2022-09-24T11:23:18.673Z,19.63
2022-09-24T11:24:19.206Z,19.63
2022-09-24T11:25:18.317Z,19.47
2022-09-24T11:26:18.394Z,19.29
2022-09-24T11:27:18.294Z,19.25
2022-09-24T11:28:18.365Z,19.29
2022-09-24T11:29:25.278Z,19.14
2022-09-24T11:30:18.241Z,19.11
2022-09-24T11:31:25.342Z,19.14
2022-09-24T11:32:25.234Z,19.26
2022-09-24T11:33:22.712Z,19.41
2022-09-24T11:34:18.188Z,19.51
2022-09-24T11:35:18.176Z,19.68
2022-09-24T11:36:18.166Z,19.71
2022-09-24T11:37:18.177Z,19.71
2022-09-24T11:38:18.183Z,19.62
2022-09-24T11:39:18.129Z,19.44
2022-09-24T11:40:18.153Z,19.46
2022-09-24T11:41:18.116Z,19.58
2022-09-24T11:42:18.085Z,19.44
2022-09-24T11:43:18.524Z,19.40
2022-09-24T11:44:18.064Z,19.33
2022-09-24T11:45:18.062Z,19.41
2022-09-24T11:46:18.077Z,19.50
2022-09-24T11:47:18.034Z,19.65
2022-09-24T11:48:18.327Z,19.76
2022-09-24T11:49:18.021Z,19.91
2022-09-24T11:50:17.996Z,20.01
2022-09-24T11:51:17.977Z,19.87
2022-09-24T11:52:17.956Z,19.88
2022-09-24T11:53:18.227Z,19.98
2022-09-24T11:54:17.935Z,20.16
2022-09-24T11:55:17.924Z,20.18
2022-09-24T11:56:17.908Z,20.32
2022-09-24T11:57:17.894Z,20.42
2022-09-24T11:58:18.316Z,20.55
2022-09-24T11:59:17.862Z,20.54
2022-09-24T12:00:17.914Z,20.50
2022-09-24T12:01:17.854Z,20.43
2022-09-24T12:02:17.934Z,20.38
2022-09-24T12:03:22.161Z,20.39
2022-09-24T12:04:18.827Z,20.41
2022-09-24T12:05:17.802Z,20.41
2022-09-24T12:06:17.777Z,20.42
2022-09-24T12:07:17.765Z,20.51
2022-09-24T12:08:18.064Z,20.64
2022-09-24T12:09:17.751Z,20.61
2022-09-24T12:10:17.733Z,20.67
2022-09-24T12:11:17.716Z,20.69
2022-09-24T12:12:17.694Z,20.58
2022-09-24T12:13:18.016Z,20.51
2022-09-24T12:14:17.683Z,20.43
2022-09-24T12:15:17.661Z,20.29
2022-09-24T12:16:17.674Z,20.23
2022-09-24T12:17:17.655Z,20.21
2022-09-24T12:18:18.070Z,20.33
2022-09-24T12:19:17.612Z,20.21
2022-09-24T12:20:17.598Z,20.23
2022-09-24T12:21:17.583Z,20.02
2022-09-24T12:22:17.575Z,19.92
2022-09-24T12:23:17.875Z,19.92
2022-09-24T12:24:17.544Z,19.96
2022-09-24T12:25:17.543Z,19.87
2022-09-24T12:26:17.522Z,19.76
2022-09-24T12:27:17.514Z,19.76
2022-09-24T12:28:17.942Z,19.83
2022-09-24T12:29:17.488Z,19.86
2022-09-24T12:30:17.476Z,19.92
2022-09-24T12:31:17.486Z,19.84
2022-09-24T12:32:17.447Z,19.87
2022-09-24T12:33:17.754Z,19.95
2022-09-24T12:34:17.412Z,19.68
2022-09-24T12:35:17.415Z,19.33
2022-09-24T12:36:17.383Z,19.29
2022-09-24T12:37:17.373Z,19.26
2022-09-24T12:38:17.804Z,19.36
2022-09-24T12:39:17.354Z,19.26
2022-09-24T12:40:17.428Z,19.32
2022-09-24T12:41:17.325Z,19.28
2022-09-24T12:42:17.312Z,19.18
2022-09-24T12:43:17.733Z,19.06
2022-09-24T12:44:21.891Z,18.99
2022-09-24T12:45:18.290Z,19.00
2022-09-24T12:46:17.300Z,18.91
2022-09-24T12:47:17.253Z,18.81
2022-09-24T12:48:17.583Z,18.69
2022-09-24T12:49:17.219Z,18.76
2022-09-24T12:50:17.262Z,18.73
2022-09-24T12:51:17.189Z,18.66
2022-09-24T12:52:17.222Z,18.72
2022-09-24T12:53:17.919Z,18.75
2022-09-24T12:54:17.162Z,18.75
2022-09-24T12:55:17.166Z,18.80
2022-09-24T12:56:17.143Z,18.78
2022-09-24T12:57:20.189Z,18.69
2022-09-24T12:58:18.332Z,18.67